sensor_id;sensor_type;location;lat;lon;timestamp;temperature;humidity
20045;DHT22;10183;47.808;9.476;2023-08-20T00:00:37;19.80;99.90
20045;DHT22;10183;47.808;9.476;2023-08-20T00:03:12;19.80;99.90
20045;DHT22;10183;47.808;9.476;2023-08-20T00:05:39;19.80;99.90
20045;DHT22;10183;47.808;9.476;2023-08-20T00:08:06;19.90;99.90
20045;DHT22;10183;47.808;9.476;2023-08-20T00:10:32;19.80;99.90
20045;DHT22;10183;47.808;9.476;2023-08-20T00:12:59;19.80;99.90
20045;DHT22;10183;47.808;9.476;2023-08-20T00:15:25;19.60;99.90
20045;DHT22;10183;47.808;9.476;2023-08-20T00:17:55;19.50;99.90
20045;DHT22;10183;47.808;9.476;2023-08-20T00:20:22;19.30;99.90
20045;DHT22;10183;47.808;9.476;2023-08-20T00:22:48;19.20;99.90
20045;DHT22;10183;47.808;9.476;2023-08-20T00:25:16;19.10;99.90
20045;DHT22;10183;47.808;9.476;2023-08-20T00:27:43;19.20;99.90
20045;DHT22;10183;47.808;9.476;2023-08-20T00:30:10;19.20;99.90
20045;DHT22;10183;47.808;9.476;2023-08-20T00:32:37;19.20;99.90
20045;DHT22;10183;47.808;9.476;2023-08-20T00:35:04;19.10;99.90
20045;DHT22;10183;47.808;9.476;2023-08-20T00:37:30;19.00;99.90
20045;DHT22;10183;47.808;9.476;2023-08-20T00:39:57;18.90;99.90
20045;DHT22;10183;47.808;9.476;2023-08-20T00:42:24;18.90;99.90
20045;DHT22;10183;47.808;9.476;2023-08-20T00:44:52;18.90;99.90
20045;DHT22;10183;47.808;9.476;2023-08-20T00:47:19;18.90;99.90
20045;DHT22;10183;47.808;9.476;2023-08-20T00:49:46;19.00;99.90
20045;DHT22;10183;47.808;9.476;2023-08-20T00:52:14;19.00;99.90
20045;DHT22;10183;47.808;9.476;2023-08-20T00:54:44;18.90;99.90
20045;DHT22;10183;47.808;9.476;2023-08-20T00:57:14;18.80;99.90
20045;DHT22;10183;47.808;9.476;2023-08-20T00:59:42;18.70;99.90
20045;DHT22;10183;47.808;9.476;2023-08-20T01:02:09;18.80;99.90
20045;DHT22;10183;47.808;9.476;2023-08-20T01:04:36;18.70;99.90
20045;DHT22;10183;47.808;9.476;2023-08-20T01:07:04;18.70;99.90
20045;DHT22;10183;47.808;9.476;2023-08-20T01:12:06;18.70;99.90
20045;DHT22;10183;47.808;9.476;2023-08-20T01:14:33;18.70;99.90
20045;DHT22;10183;47.808;9.476;2023-08-20T01:16:59;18.70;99.90
20045;DHT22;10183;47.808;9.476;2023-08-20T01:19:25;18.60;99.90
20045;DHT22;10183;47.808;9.476;2023-08-20T01:22:05;18.70;99.90
20045;DHT22;10183;47.808;9.476;2023-08-20T01:30:11;18.70;99.90
20045;DHT22;10183;47.808;9.476;2023-08-20T01:32:38;18.50;99.90
20045;DHT22;10183;47.808;9.476;2023-08-20T01:35:15;18.60;99.90
20045;DHT22;10183;47.808;9.476;2023-08-20T01:37:42;18.50;99.90
20045;DHT22;10183;47.808;9.476;2023-08-20T01:40:08;18.60;99.90
20045;DHT22;10183;47.808;9.476;2023-08-20T01:42:40;18.50;99.90
20045;DHT22;10183;47.808;9.476;2023-08-20T01:45:07;18.50;99.90
20045;DHT22;10183;47.808;9.476;2023-08-20T01:47:33;18.60;99.90
20045;DHT22;10183;47.808;9.476;2023-08-20T01:50:00;18.60;99.90
20045;DHT22;10183;47.808;9.476;2023-08-20T01:52:26;18.60;99.90
20045;DHT22;10183;47.808;9.476;2023-08-20T01:54:53;18.60;99.90
20045;DHT22;10183;47.808;9.476;2023-08-20T01:57:19;18.60;99.90
20045;DHT22;10183;47.808;9.476;2023-08-20T01:59:46;18.80;99.90
20045;DHT22;10183;47.808;9.476;2023-08-20T02:02:12;18.90;99.90
20045;DHT22;10183;47.808;9.476;2023-08-20T02:04:39;18.90;99.90
20045;DHT22;10183;47.808;9.476;2023-08-20T02:07:05;18.90;99.90
20045;DHT22;10183;47.808;9.476;2023-08-20T02:09:31;18.90;99.90
20045;DHT22;10183;47.808;9.476;2023-08-20T02:11:57;18.90;99.90
20045;DHT22;10183;47.808;9.476;2023-08-20T02:14:24;18.80;99.90
20045;DHT22;10183;47.808;9.476;2023-08-20T02:16:53;18.80;99.90
20045;DHT22;10183;47.808;9.476;2023-08-20T02:19:19;18.80;99.90
20045;DHT22;10183;47.808;9.476;2023-08-20T02:21:45;18.70;99.90
20045;DHT22;10183;47.808;9.476;2023-08-20T02:24:11;18.50;99.90
20045;DHT22;10183;47.808;9.476;2023-08-20T02:26:37;18.30;99.90
20045;DHT22;10183;47.808;9.476;2023-08-20T02:29:04;18.10;99.90
20045;DHT22;10183;47.808;9.476;2023-08-20T02:31:31;18.10;99.90
20045;DHT22;10183;47.808;9.476;2023-08-20T02:33:57;18.10;99.90
20045;DHT22;10183;47.808;9.476;2023-08-20T02:36:23;18.00;99.90
20045;DHT22;10183;47.808;9.476;2023-08-20T02:38:49;18.00;99.90
20045;DHT22;10183;47.808;9.476;2023-08-20T02:41:16;18.00;99.90
20045;DHT22;10183;47.808;9.476;2023-08-20T02:43:42;18.00;99.90
20045;DHT22;10183;47.808;9.476;2023-08-20T02:46:09;18.00;99.90
20045;DHT22;10183;47.808;9.476;2023-08-20T02:48:35;18.00;99.90
20045;DHT22;10183;47.808;9.476;2023-08-20T02:51:02;18.00;99.90
20045;DHT22;10183;47.808;9.476;2023-08-20T02:53:29;18.00;99.90
20045;DHT22;10183;47.808;9.476;2023-08-20T02:55:55;18.00;99.90
20045;DHT22;10183;47.808;9.476;2023-08-20T02:58:22;18.10;99.90
20045;DHT22;10183;47.808;9.476;2023-08-20T03:00:48;18.00;99.90
20045;DHT22;10183;47.808;9.476;2023-08-20T03:03:15;18.00;99.90
20045;DHT22;10183;47.808;9.476;2023-08-20T03:05:41;17.90;99.90
20045;DHT22;10183;47.808;9.476;2023-08-20T03:08:08;17.90;99.90
20045;DHT22;10183;47.808;9.476;2023-08-20T03:10:34;17.90;99.90
20045;DHT22;10183;47.808;9.476;2023-08-20T03:13:04;18.00;99.90
20045;DHT22;10183;47.808;9.476;2023-08-20T03:15:30;18.00;99.90
20045;DHT22;10183;47.808;9.476;2023-08-20T03:17:56;18.00;99.90
20045;DHT22;10183;47.808;9.476;2023-08-20T03:20:23;18.00;99.90
20045;DHT22;10183;47.808;9.476;2023-08-20T03:22:49;18.00;99.90
20045;DHT22;10183;47.808;9.476;2023-08-20T03:25:16;18.00;99.90
20045;DHT22;10183;47.808;9.476;2023-08-20T03:27:42;17.90;99.90
20045;DHT22;10183;47.808;9.476;2023-08-20T03:30:09;17.90;99.90
20045;DHT22;10183;47.808;9.476;2023-08-20T03:32:35;17.90;99.90
20045;DHT22;10183;47.808;9.476;2023-08-20T03:35:02;17.90;99.90
20045;DHT22;10183;47.808;9.476;2023-08-20T03:37:29;17.80;99.90
20045;DHT22;10183;47.808;9.476;2023-08-20T03:39:55;17.80;99.90
20045;DHT22;10183;47.808;9.476;2023-08-20T03:42:22;17.80;99.90
20045;DHT22;10183;47.808;9.476;2023-08-20T03:44:48;17.70;99.90
20045;DHT22;10183;47.808;9.476;2023-08-20T03:47:15;17.50;99.90
20045;DHT22;10183;47.808;9.476;2023-08-20T03:49:41;17.40;99.90
20045;DHT22;10183;47.808;9.476;2023-08-20T03:52:08;17.40;99.90
20045;DHT22;10183;47.808;9.476;2023-08-20T03:54:35;17.40;99.90
20045;DHT22;10183;47.808;9.476;2023-08-20T03:57:01;17.40;99.90
20045;DHT22;10183;47.808;9.476;2023-08-20T03:59:28;17.30;99.90
20045;DHT22;10183;47.808;9.476;2023-08-20T04:01:54;17.40;99.90
20045;DHT22;10183;47.808;9.476;2023-08-20T04:04:20;17.40;99.90
20045;DHT22;10183;47.808;9.476;2023-08-20T04:06:47;17.40;99.90
20045;DHT22;10183;47.808;9.476;2023-08-20T04:09:13;17.40;99.90
20045;DHT22;10183;47.808;9.476;2023-08-20T04:11:39;17.30;99.90
20045;DHT22;10183;47.808;9.476;2023-08-20T04:14:06;17.30;99.90
20045;DHT22;10183;47.808;9.476;2023-08-20T04:16:32;17.20;99.90
20045;DHT22;10183;47.808;9.476;2023-08-20T04:18:58;17.10;99.90
20045;DHT22;10183;47.808;9.476;2023-08-20T04:21:24;17.10;99.90
20045;DHT22;10183;47.808;9.476;2023-08-20T04:23:50;17.20;99.90
20045;DHT22;10183;47.808;9.476;2023-08-20T04:26:16;17.30;99.90
20045;DHT22;10183;47.808;9.476;2023-08-20T04:28:43;17.30;99.90
20045;DHT22;10183;47.808;9.476;2023-08-20T04:31:09;17.20;99.90
20045;DHT22;10183;47.808;9.476;2023-08-20T04:33:36;17.10;99.90
20045;DHT22;10183;47.808;9.476;2023-08-20T04:36:02;17.10;99.90
20045;DHT22;10183;47.808;9.476;2023-08-20T04:38:28;17.10;99.90
20045;DHT22;10183;47.808;9.476;2023-08-20T04:40:54;17.20;99.90
20045;DHT22;10183;47.808;9.476;2023-08-20T04:43:20;17.30;99.90
20045;DHT22;10183;47.808;9.476;2023-08-20T04:45:46;17.30;99.90
20045;DHT22;10183;47.808;9.476;2023-08-20T04:48:12;17.30;99.90
20045;DHT22;10183;47.808;9.476;2023-08-20T04:50:39;17.30;99.90
20045;DHT22;10183;47.808;9.476;2023-08-20T04:53:05;17.40;99.90
20045;DHT22;10183;47.808;9.476;2023-08-20T04:55:31;17.40;99.90
20045;DHT22;10183;47.808;9.476;2023-08-20T04:57:57;17.40;99.90
20045;DHT22;10183;47.808;9.476;2023-08-20T05:00:23;17.30;99.90
20045;DHT22;10183;47.808;9.476;2023-08-20T05:02:50;17.30;99.90
20045;DHT22;10183;47.808;9.476;2023-08-20T05:05:16;17.30;99.90
20045;DHT22;10183;47.808;9.476;2023-08-20T05:07:44;17.30;99.90
20045;DHT22;10183;47.808;9.476;2023-08-20T05:10:10;17.30;99.90
20045;DHT22;10183;47.808;9.476;2023-08-20T05:12:36;17.40;99.90
20045;DHT22;10183;47.808;9.476;2023-08-20T05:15:03;17.40;99.90
20045;DHT22;10183;47.808;9.476;2023-08-20T05:17:29;17.50;99.90
20045;DHT22;10183;47.808;9.476;2023-08-20T05:19:56;17.70;99.90
20045;DHT22;10183;47.808;9.476;2023-08-20T05:22:22;17.80;99.90
20045;DHT22;10183;47.808;9.476;2023-08-20T05:24:48;17.90;99.90
20045;DHT22;10183;47.808;9.476;2023-08-20T05:27:16;17.90;99.90
20045;DHT22;10183;47.808;9.476;2023-08-20T05:29:45;18.00;99.90
20045;DHT22;10183;47.808;9.476;2023-08-20T05:32:12;18.10;99.90
20045;DHT22;10183;47.808;9.476;2023-08-20T05:34:38;18.30;99.90
20045;DHT22;10183;47.808;9.476;2023-08-20T05:37:04;18.40;99.90
20045;DHT22;10183;47.808;9.476;2023-08-20T05:39:35;18.50;99.90
20045;DHT22;10183;47.808;9.476;2023-08-20T05:42:02;18.50;99.90
20045;DHT22;10183;47.808;9.476;2023-08-20T05:44:31;18.50;99.90
20045;DHT22;10183;47.808;9.476;2023-08-20T05:46:57;18.40;99.90
20045;DHT22;10183;47.808;9.476;2023-08-20T05:49:23;18.40;99.90
20045;DHT22;10183;47.808;9.476;2023-08-20T05:51:49;18.50;99.90
20045;DHT22;10183;47.808;9.476;2023-08-20T05:54:15;18.60;99.90
20045;DHT22;10183;47.808;9.476;2023-08-20T05:56:42;18.60;99.90
20045;DHT22;10183;47.808;9.476;2023-08-20T05:59:08;18.80;99.90
20045;DHT22;10183;47.808;9.476;2023-08-20T06:01:43;19.00;99.90
20045;DHT22;10183;47.808;9.476;2023-08-20T06:04:09;19.10;99.90
20045;DHT22;10183;47.808;9.476;2023-08-20T06:06:35;19.20;99.90
20045;DHT22;10183;47.808;9.476;2023-08-20T06:09:02;19.30;99.90
20045;DHT22;10183;47.808;9.476;2023-08-20T06:11:28;19.30;99.90
20045;DHT22;10183;47.808;9.476;2023-08-20T06:13:54;19.50;99.90
20045;DHT22;10183;47.808;9.476;2023-08-20T06:16:20;19.60;99.90
20045;DHT22;10183;47.808;9.476;2023-08-20T06:18:47;19.70;99.90
20045;DHT22;10183;47.808;9.476;2023-08-20T06:21:13;19.80;99.90
20045;DHT22;10183;47.808;9.476;2023-08-20T06:23:39;20.00;99.90
20045;DHT22;10183;47.808;9.476;2023-08-20T06:26:05;20.10;99.90
20045;DHT22;10183;47.808;9.476;2023-08-20T06:28:31;20.30;99.90
20045;DHT22;10183;47.808;9.476;2023-08-20T06:30:57;20.50;99.90
20045;DHT22;10183;47.808;9.476;2023-08-20T06:33:23;20.60;99.90
20045;DHT22;10183;47.808;9.476;2023-08-20T06:35:49;20.60;99.90
20045;DHT22;10183;47.808;9.476;2023-08-20T06:38:16;20.60;99.90
20045;DHT22;10183;47.808;9.476;2023-08-20T06:40:42;20.70;99.90
20045;DHT22;10183;47.808;9.476;2023-08-20T06:43:08;20.80;99.90
20045;DHT22;10183;47.808;9.476;2023-08-20T06:45:34;21.00;99.90
20045;DHT22;10183;47.808;9.476;2023-08-20T06:48:00;21.10;99.90
20045;DHT22;10183;47.808;9.476;2023-08-20T06:50:27;21.20;99.90
20045;DHT22;10183;47.808;9.476;2023-08-20T06:52:53;21.30;99.90
20045;DHT22;10183;47.808;9.476;2023-08-20T06:55:19;21.40;99.90
20045;DHT22;10183;47.808;9.476;2023-08-20T06:57:45;21.50;99.90
20045;DHT22;10183;47.808;9.476;2023-08-20T07:00:11;21.60;99.90
20045;DHT22;10183;47.808;9.476;2023-08-20T07:02:37;21.70;99.90
20045;DHT22;10183;47.808;9.476;2023-08-20T07:05:04;21.90;99.90
20045;DHT22;10183;47.808;9.476;2023-08-20T07:07:30;22.10;99.90
20045;DHT22;10183;47.808;9.476;2023-08-20T07:09:56;22.10;99.90
20045;DHT22;10183;47.808;9.476;2023-08-20T07:12:22;22.30;99.90
20045;DHT22;10183;47.808;9.476;2023-08-20T07:14:48;22.40;99.90
20045;DHT22;10183;47.808;9.476;2023-08-20T07:17:14;22.60;99.90
20045;DHT22;10183;47.808;9.476;2023-08-20T07:19:40;22.80;99.90
20045;DHT22;10183;47.808;9.476;2023-08-20T07:22:07;22.90;99.90
20045;DHT22;10183;47.808;9.476;2023-08-20T07:24:33;23.10;99.90
20045;DHT22;10183;47.808;9.476;2023-08-20T07:27:01;23.30;99.90
20045;DHT22;10183;47.808;9.476;2023-08-20T07:29:29;23.30;99.90
20045;DHT22;10183;47.808;9.476;2023-08-20T07:31:56;23.30;99.90
20045;DHT22;10183;47.808;9.476;2023-08-20T07:34:23;23.40;99.90
20045;DHT22;10183;47.808;9.476;2023-08-20T07:36:49;23.40;99.90
20045;DHT22;10183;47.808;9.476;2023-08-20T07:39:15;23.40;99.90
20045;DHT22;10183;47.808;9.476;2023-08-20T07:41:42;23.50;99.90
20045;DHT22;10183;47.808;9.476;2023-08-20T07:44:08;23.60;99.90
20045;DHT22;10183;47.808;9.476;2023-08-20T07:46:34;23.60;99.90
20045;DHT22;10183;47.808;9.476;2023-08-20T07:49:00;23.60;99.90
20045;DHT22;10183;47.808;9.476;2023-08-20T07:51:27;23.40;99.90
20045;DHT22;10183;47.808;9.476;2023-08-20T07:53:53;23.40;99.90
20045;DHT22;10183;47.808;9.476;2023-08-20T07:56:19;23.70;99.90
20045;DHT22;10183;47.808;9.476;2023-08-20T07:58:45;23.60;99.90
20045;DHT22;10183;47.808;9.476;2023-08-20T08:01:11;23.80;99.90
20045;DHT22;10183;47.808;9.476;2023-08-20T08:03:40;23.90;99.90
20045;DHT22;10183;47.808;9.476;2023-08-20T08:06:06;24.20;99.90
20045;DHT22;10183;47.808;9.476;2023-08-20T08:08:32;24.30;99.90
20045;DHT22;10183;47.808;9.476;2023-08-20T08:10:58;24.20;99.90
20045;DHT22;10183;47.808;9.476;2023-08-20T08:13:26;24.40;99.90
20045;DHT22;10183;47.808;9.476;2023-08-20T08:15:52;24.30;99.90
20045;DHT22;10183;47.808;9.476;2023-08-20T08:18:19;24.20;99.90
20045;DHT22;10183;47.808;9.476;2023-08-20T08:20:46;24.20;99.90
20045;DHT22;10183;47.808;9.476;2023-08-20T08:23:12;24.30;99.90
20045;DHT22;10183;47.808;9.476;2023-08-20T08:25:38;24.50;99.90
20045;DHT22;10183;47.808;9.476;2023-08-20T08:28:05;24.60;99.90
20045;DHT22;10183;47.808;9.476;2023-08-20T08:30:32;24.80;99.90
20045;DHT22;10183;47.808;9.476;2023-08-20T08:32:58;25.00;99.90
20045;DHT22;10183;47.808;9.476;2023-08-20T08:35:24;25.10;99.90
20045;DHT22;10183;47.808;9.476;2023-08-20T08:37:50;25.20;99.90
20045;DHT22;10183;47.808;9.476;2023-08-20T08:40:17;25.20;99.90
20045;DHT22;10183;47.808;9.476;2023-08-20T08:42:48;25.30;99.90
20045;DHT22;10183;47.808;9.476;2023-08-20T08:45:17;25.30;99.90
20045;DHT22;10183;47.808;9.476;2023-08-20T08:47:44;25.30;99.90
20045;DHT22;10183;47.808;9.476;2023-08-20T08:50:12;25.50;99.90
20045;DHT22;10183;47.808;9.476;2023-08-20T08:52:39;25.40;99.90
20045;DHT22;10183;47.808;9.476;2023-08-20T08:55:06;25.30;99.90
20045;DHT22;10183;47.808;9.476;2023-08-20T08:57:37;25.50;99.90
20045;DHT22;10183;47.808;9.476;2023-08-20T09:00:04;25.50;99.90
20045;DHT22;10183;47.808;9.476;2023-08-20T09:02:31;25.60;99.90
20045;DHT22;10183;47.808;9.476;2023-08-20T09:04:58;25.80;99.90
20045;DHT22;10183;47.808;9.476;2023-08-20T09:07:24;25.80;99.90
20045;DHT22;10183;47.808;9.476;2023-08-20T09:09:50;26.00;99.90
20045;DHT22;10183;47.808;9.476;2023-08-20T09:12:18;26.00;99.90
20045;DHT22;10183;47.808;9.476;2023-08-20T09:14:49;26.10;99.90
20045;DHT22;10183;47.808;9.476;2023-08-20T09:17:17;26.40;99.90
20045;DHT22;10183;47.808;9.476;2023-08-20T09:19:44;26.40;99.90
20045;DHT22;10183;47.808;9.476;2023-08-20T09:22:15;26.50;99.90
20045;DHT22;10183;47.808;9.476;2023-08-20T09:24:46;26.70;99.90
20045;DHT22;10183;47.808;9.476;2023-08-20T09:27:13;26.50;99.90
20045;DHT22;10183;47.808;9.476;2023-08-20T09:29:56;26.70;99.90
20045;DHT22;10183;47.808;9.476;2023-08-20T09:32:27;26.70;99.90
20045;DHT22;10183;47.808;9.476;2023-08-20T09:34:55;27.10;99.90
20045;DHT22;10183;47.808;9.476;2023-08-20T09:37:23;26.90;99.90
20045;DHT22;10183;47.808;9.476;2023-08-20T09:39:49;27.10;99.90
20045;DHT22;10183;47.808;9.476;2023-08-20T09:42:17;27.50;99.90
20045;DHT22;10183;47.808;9.476;2023-08-20T09:44:45;27.70;99.90
20045;DHT22;10183;47.808;9.476;2023-08-20T09:47:14;27.80;99.90
20045;DHT22;10183;47.808;9.476;2023-08-20T09:49:42;27.70;99.90
20045;DHT22;10183;47.808;9.476;2023-08-20T09:52:12;28.00;99.90
20045;DHT22;10183;47.808;9.476;2023-08-20T09:57:33;28.20;99.90
20045;DHT22;10183;47.808;9.476;2023-08-20T10:00:00;28.00;99.90
20045;DHT22;10183;47.808;9.476;2023-08-20T10:02:26;27.90;99.90
20045;DHT22;10183;47.808;9.476;2023-08-20T10:04:53;27.60;99.90
20045;DHT22;10183;47.808;9.476;2023-08-20T10:07:19;27.80;99.90
20045;DHT22;10183;47.808;9.476;2023-08-20T10:09:46;28.00;99.90
20045;DHT22;10183;47.808;9.476;2023-08-20T10:12:13;27.90;99.90
20045;DHT22;10183;47.808;9.476;2023-08-20T10:14:40;28.30;99.90
20045;DHT22;10183;47.808;9.476;2023-08-20T10:17:11;28.70;99.90
20045;DHT22;10183;47.808;9.476;2023-08-20T10:19:38;28.70;99.90
20045;DHT22;10183;47.808;9.476;2023-08-20T10:22:07;29.00;99.90
20045;DHT22;10183;47.808;9.476;2023-08-20T10:24:49;29.20;99.90
20045;DHT22;10183;47.808;9.476;2023-08-20T10:27:31;28.70;99.90
20045;DHT22;10183;47.808;9.476;2023-08-20T10:29:59;28.50;99.90
20045;DHT22;10183;47.808;9.476;2023-08-20T10:32:55;28.90;99.90
20045;DHT22;10183;47.808;9.476;2023-08-20T10:35:23;28.90;99.90
20045;DHT22;10183;47.808;9.476;2023-08-20T10:38:12;29.10;99.90
20045;DHT22;10183;47.808;9.476;2023-08-20T10:40:55;29.50;99.90
20045;DHT22;10183;47.808;9.476;2023-08-20T10:43:31;29.90;99.90
20045;DHT22;10183;47.808;9.476;2023-08-20T10:46:08;30.40;99.90
20045;DHT22;10183;47.808;9.476;2023-08-20T10:48:37;30.50;99.90
20045;DHT22;10183;47.808;9.476;2023-08-20T10:53:41;30.70;99.90
20045;DHT22;10183;47.808;9.476;2023-08-20T10:56:11;30.60;99.90
20045;DHT22;10183;47.808;9.476;2023-08-20T10:58:41;30.90;99.90
20045;DHT22;10183;47.808;9.476;2023-08-20T11:01:22;31.20;99.90
20045;DHT22;10183;47.808;9.476;2023-08-20T11:03:50;31.50;99.90
20045;DHT22;10183;47.808;9.476;2023-08-20T11:06:18;31.60;99.90
20045;DHT22;10183;47.808;9.476;2023-08-20T11:08:45;31.70;99.90
20045;DHT22;10183;47.808;9.476;2023-08-20T11:11:11;32.20;99.90
20045;DHT22;10183;47.808;9.476;2023-08-20T11:13:39;32.10;99.90
20045;DHT22;10183;47.808;9.476;2023-08-20T11:16:06;31.20;99.90
20045;DHT22;10183;47.808;9.476;2023-08-20T11:18:34;31.00;99.90
20045;DHT22;10183;47.808;9.476;2023-08-20T11:21:00;31.40;99.90
20045;DHT22;10183;47.808;9.476;2023-08-20T11:23:28;31.70;99.90
20045;DHT22;10183;47.808;9.476;2023-08-20T11:25:56;32.40;99.90
20045;DHT22;10183;47.808;9.476;2023-08-20T11:28:22;32.70;99.90
20045;DHT22;10183;47.808;9.476;2023-08-20T11:30:50;32.90;98.20
20045;DHT22;10183;47.808;9.476;2023-08-20T11:33:17;33.30;99.90
20045;DHT22;10183;47.808;9.476;2023-08-20T11:35:43;33.20;89.40
20045;DHT22;10183;47.808;9.476;2023-08-20T11:38:10;33.50;93.60
20045;DHT22;10183;47.808;9.476;2023-08-20T11:40:40;33.60;73.20
20045;DHT22;10183;47.808;9.476;2023-08-20T11:43:06;33.20;54.10
20045;DHT22;10183;47.808;9.476;2023-08-20T11:45:44;32.70;51.90
20045;DHT22;10183;47.808;9.476;2023-08-20T11:48:10;32.30;80.20
20045;DHT22;10183;47.808;9.476;2023-08-20T11:50:36;31.90;83.00
20045;DHT22;10183;47.808;9.476;2023-08-20T11:53:03;31.70;88.60
20045;DHT22;10183;47.808;9.476;2023-08-20T11:55:30;31.70;78.70
20045;DHT22;10183;47.808;9.476;2023-08-20T11:57:56;32.40;72.50
20045;DHT22;10183;47.808;9.476;2023-08-20T12:00:27;32.60;54.00
20045;DHT22;10183;47.808;9.476;2023-08-20T12:02:54;33.20;84.40
20045;DHT22;10183;47.808;9.476;2023-08-20T12:05:28;33.40;34.90
20045;DHT22;10183;47.808;9.476;2023-08-20T12:07:58;33.60;39.40
20045;DHT22;10183;47.808;9.476;2023-08-20T12:10:26;33.50;73.00
20045;DHT22;10183;47.808;9.476;2023-08-20T12:12:54;33.30;41.20
20045;DHT22;10183;47.808;9.476;2023-08-20T12:15:21;33.60;25.20
20045;DHT22;10183;47.808;9.476;2023-08-20T12:18:04;34.10;26.70
20045;DHT22;10183;47.808;9.476;2023-08-20T12:23:05;33.20;20.00
20045;DHT22;10183;47.808;9.476;2023-08-20T12:25:33;33.70;86.50
20045;DHT22;10183;47.808;9.476;2023-08-20T12:28:01;34.60;36.60
20045;DHT22;10183;47.808;9.476;2023-08-20T12:30:27;34.00;30.80
20045;DHT22;10183;47.808;9.476;2023-08-20T12:32:54;33.70;10.80
20045;DHT22;10183;47.808;9.476;2023-08-20T12:35:20;33.50;21.70
20045;DHT22;10183;47.808;9.476;2023-08-20T12:37:46;34.60;23.10
20045;DHT22;10183;47.808;9.476;2023-08-20T12:40:13;34.40;20.30
20045;DHT22;10183;47.808;9.476;2023-08-20T12:42:39;35.20;19.70
20045;DHT22;10183;47.808;9.476;2023-08-20T12:45:08;36.40;8.50
20045;DHT22;10183;47.808;9.476;2023-08-20T12:47:36;37.10;13.60
20045;DHT22;10183;47.808;9.476;2023-08-20T12:50:02;37.60;5.30
20045;DHT22;10183;47.808;9.476;2023-08-20T12:52:31;38.10;1.00
20045;DHT22;10183;47.808;9.476;2023-08-20T12:54:57;36.70;1.00
20045;DHT22;10183;47.808;9.476;2023-08-20T12:57:23;35.90;1.00
20045;DHT22;10183;47.808;9.476;2023-08-20T12:59:50;37.40;1.00
20045;DHT22;10183;47.808;9.476;2023-08-20T13:02:17;38.80;1.00
20045;DHT22;10183;47.808;9.476;2023-08-20T13:04:43;39.70;1.00
20045;DHT22;10183;47.808;9.476;2023-08-20T13:07:10;40.50;1.00
20045;DHT22;10183;47.808;9.476;2023-08-20T13:09:36;39.20;1.00
20045;DHT22;10183;47.808;9.476;2023-08-20T13:12:03;41.00;1.00
20045;DHT22;10183;47.808;9.476;2023-08-20T13:14:31;41.80;1.00
20045;DHT22;10183;47.808;9.476;2023-08-20T13:16:58;42.50;1.00
20045;DHT22;10183;47.808;9.476;2023-08-20T13:19:24;43.30;1.00
20045;DHT22;10183;47.808;9.476;2023-08-20T13:21:50;42.90;1.00
20045;DHT22;10183;47.808;9.476;2023-08-20T13:24:16;43.70;1.00
20045;DHT22;10183;47.808;9.476;2023-08-20T13:26:42;43.80;1.00
20045;DHT22;10183;47.808;9.476;2023-08-20T13:29:08;44.10;1.00
20045;DHT22;10183;47.808;9.476;2023-08-20T13:31:34;43.70;1.00
20045;DHT22;10183;47.808;9.476;2023-08-20T13:34:02;44.70;1.00
20045;DHT22;10183;47.808;9.476;2023-08-20T13:36:28;45.00;1.00
20045;DHT22;10183;47.808;9.476;2023-08-20T13:38:55;44.80;1.00
20045;DHT22;10183;47.808;9.476;2023-08-20T13:41:22;45.80;1.00
20045;DHT22;10183;47.808;9.476;2023-08-20T13:43:48;46.10;1.00
20045;DHT22;10183;47.808;9.476;2023-08-20T13:46:14;44.50;1.00
20045;DHT22;10183;47.808;9.476;2023-08-20T13:48:40;43.60;1.00
20045;DHT22;10183;47.808;9.476;2023-08-20T13:51:06;44.30;1.00
20045;DHT22;10183;47.808;9.476;2023-08-20T13:53:33;43.40;1.00
20045;DHT22;10183;47.808;9.476;2023-08-20T13:55:59;44.40;1.00
20045;DHT22;10183;47.808;9.476;2023-08-20T13:58:25;44.50;1.00
20045;DHT22;10183;47.808;9.476;2023-08-20T14:00:51;43.40;1.00
20045;DHT22;10183;47.808;9.476;2023-08-20T14:03:18;42.60;1.00
20045;DHT22;10183;47.808;9.476;2023-08-20T14:05:44;43.60;1.00
20045;DHT22;10183;47.808;9.476;2023-08-20T14:08:11;42.70;1.00
20045;DHT22;10183;47.808;9.476;2023-08-20T14:10:38;43.70;1.00
20045;DHT22;10183;47.808;9.476;2023-08-20T14:13:04;44.70;1.00
20045;DHT22;10183;47.808;9.476;2023-08-20T14:15:30;45.40;1.00
20045;DHT22;10183;47.808;9.476;2023-08-20T14:17:56;45.60;1.00
20045;DHT22;10183;47.808;9.476;2023-08-20T14:20:23;44.70;1.00
20045;DHT22;10183;47.808;9.476;2023-08-20T14:22:49;45.50;1.00
20045;DHT22;10183;47.808;9.476;2023-08-20T14:25:16;45.90;1.00
20045;DHT22;10183;47.808;9.476;2023-08-20T14:27:42;46.10;1.00
20045;DHT22;10183;47.808;9.476;2023-08-20T14:30:08;44.90;1.00
20045;DHT22;10183;47.808;9.476;2023-08-20T14:32:36;41.70;1.00
20045;DHT22;10183;47.808;9.476;2023-08-20T14:35:02;43.20;1.00
20045;DHT22;10183;47.808;9.476;2023-08-20T14:37:29;44.60;1.00
20045;DHT22;10183;47.808;9.476;2023-08-20T14:39:56;45.10;1.00
20045;DHT22;10183;47.808;9.476;2023-08-20T14:42:22;44.90;1.00
20045;DHT22;10183;47.808;9.476;2023-08-20T14:44:49;45.30;1.00
20045;DHT22;10183;47.808;9.476;2023-08-20T14:47:15;43.80;1.00
20045;DHT22;10183;47.808;9.476;2023-08-20T14:49:42;40.10;1.00
20045;DHT22;10183;47.808;9.476;2023-08-20T14:52:08;39.80;1.00
20045;DHT22;10183;47.808;9.476;2023-08-20T14:54:34;40.40;1.00
20045;DHT22;10183;47.808;9.476;2023-08-20T14:57:00;41.00;1.00
20045;DHT22;10183;47.808;9.476;2023-08-20T14:59:27;42.00;1.00
20045;DHT22;10183;47.808;9.476;2023-08-20T15:01:54;41.90;1.00
20045;DHT22;10183;47.808;9.476;2023-08-20T15:04:20;41.70;1.00
20045;DHT22;10183;47.808;9.476;2023-08-20T15:06:46;43.50;1.00
20045;DHT22;10183;47.808;9.476;2023-08-20T15:09:13;42.00;1.00
20045;DHT22;10183;47.808;9.476;2023-08-20T15:11:44;40.70;1.00
20045;DHT22;10183;47.808;9.476;2023-08-20T15:14:10;40.80;1.00
20045;DHT22;10183;47.808;9.476;2023-08-20T15:16:36;39.90;1.00
20045;DHT22;10183;47.808;9.476;2023-08-20T15:19:03;38.30;1.00
20045;DHT22;10183;47.808;9.476;2023-08-20T15:21:29;35.70;1.00
20045;DHT22;10183;47.808;9.476;2023-08-20T15:23:55;35.20;1.00
20045;DHT22;10183;47.808;9.476;2023-08-20T15:26:22;34.00;1.00
20045;DHT22;10183;47.808;9.476;2023-08-20T15:28:48;33.30;25.00
20045;DHT22;10183;47.808;9.476;2023-08-20T15:31:15;33.20;39.00
20045;DHT22;10183;47.808;9.476;2023-08-20T15:33:41;33.10;62.80
20045;DHT22;10183;47.808;9.476;2023-08-20T15:36:07;33.00;77.90
20045;DHT22;10183;47.808;9.476;2023-08-20T15:38:34;32.70;99.90
20045;DHT22;10183;47.808;9.476;2023-08-20T15:41:00;32.70;99.90
20045;DHT22;10183;47.808;9.476;2023-08-20T15:43:26;32.70;99.90
20045;DHT22;10183;47.808;9.476;2023-08-20T15:45:52;32.30;99.90
20045;DHT22;10183;47.808;9.476;2023-08-20T15:48:18;32.10;99.90